Time;durP1;ratioP1;P1;durP2;ratioP2;P2;SDS_P1;SDS_P2;PMS_P1;PMS_P2;Temp;Humidity;BMP_temperature;BMP_pressure;BME280_temperature;BME280_humidity;BME280_pressure;Samples;Min_cycle;Max_cycle;Signal;HPM_P1;HPM_P2
2023/05/22 00:01:21;;;;;;;10.00;4.60;;;;;;;12.91;67.51;101158.98;105586;1263;99794;-80
2023/05/22 00:04:07;;;;;;;8.40;4.70;;;;;;;12.85;67.29;101158.45;105549;1264;101387;-80
2023/05/22 00:06:52;;;;;;;8.50;5.00;;;;;;;12.80;67.22;101156.73;105508;1267;100819;-81
2023/05/22 00:09:38;;;;;;;7.00;5.00;;;;;;;12.77;67.91;101155.73;105582;1262;99051;-80
2023/05/22 00:12:23;;;;;;;7.20;5.30;;;;;;;12.74;68.09;101154.60;105485;1259;97971;-80
2023/05/22 00:15:10;;;;;;;6.60;4.70;;;;;;;12.73;68.15;101153.16;105642;1264;98411;-80
2023/05/22 00:17:55;;;;;;;9.00;5.30;;;;;;;12.70;68.27;101154.24;105762;1259;102017;-80
2023/05/22 00:20:41;;;;;;;8.40;5.40;;;;;;;12.67;68.49;101153.15;105437;1266;99119;-79
2023/05/22 00:23:27;;;;;;;9.00;5.20;;;;;;;12.64;68.53;101147.42;105491;1265;97986;-80
2023/05/22 00:26:15;;;;;;;10.80;6.00;;;;;;;12.61;68.56;101147.67;105453;1265;97973;-79
2023/05/22 00:29:01;;;;;;;9.80;6.20;;;;;;;12.57;68.42;101145.07;105551;1259;98514;-80
2023/05/22 00:31:46;;;;;;;8.30;5.80;;;;;;;12.56;68.61;101142.02;105535;1260;101433;-79
2023/05/22 00:34:32;;;;;;;11.50;6.20;;;;;;;12.54;68.69;101139.89;105605;1265;100448;-79
2023/05/22 00:37:19;;;;;;;9.40;6.60;;;;;;;12.53;68.57;101139.33;105569;1260;98954;-80
2023/05/22 00:40:07;;;;;;;12.50;7.00;;;;;;;12.51;68.62;101143.65;105648;1260;97990;-80
2023/05/22 00:42:53;;;;;;;16.10;9.60;;;;;;;12.53;68.66;101144.05;105696;1264;96579;-80
2023/05/22 00:45:38;;;;;;;18.70;11.10;;;;;;;12.52;68.80;101142.84;105513;1259;102578;-80
2023/05/22 00:48:24;;;;;;;20.70;11.60;;;;;;;12.50;68.73;101140.20;105754;1260;99108;-80
2023/05/22 00:51:10;;;;;;;29.60;14.00;;;;;;;12.49;68.94;101145.16;105617;1260;98364;-80
2023/05/22 00:53:55;;;;;;;26.60;13.70;;;;;;;12.45;68.98;101142.41;105566;1264;97955;-79
2023/05/22 00:56:42;;;;;;;24.50;13.00;;;;;;;12.40;69.16;101140.86;105460;1265;98495;-80
2023/05/22 00:59:28;;;;;;;21.30;11.50;;;;;;;12.34;69.35;101139.46;105470;1263;102074;-79
2023/05/22 01:02:15;;;;;;;17.30;10.40;;;;;;;12.30;69.46;101139.20;105472;1265;99082;-79
2023/05/22 01:05:03;;;;;;;14.40;8.30;;;;;;;12.29;69.57;101141.99;105560;1260;98531;-78
2023/05/22 01:07:49;;;;;;;12.60;8.70;;;;;;;12.26;69.58;101144.55;105497;1260;97963;-79
2023/05/22 01:10:38;;;;;;;11.30;7.80;;;;;;;12.23;69.48;101142.05;105595;1260;97990;-80
2023/05/22 01:13:45;;;;;;;8.90;7.10;;;;;;;12.20;69.61;101144.73;105858;1259;102000;-80
2023/05/22 01:16:47;;;;;;;12.50;7.60;;;;;;;12.14;69.95;101139.90;105263;1264;100038;-79
2023/05/22 01:20:00;;;;;;;12.70;7.60;;;;;;;12.09;70.34;101142.30;105504;1259;97953;-80
2023/05/22 01:23:08;;;;;;;13.70;7.40;;;;;;;12.05;70.28;101140.70;105164;1267;97988;-82
2023/05/22 01:26:18;;;;;;;13.60;7.40;;;;;;;12.01;70.59;101136.64;106230;1260;98014;-81
2023/05/22 01:29:43;;;;;;;11.50;7.10;;;;;;;11.99;70.63;101141.20;106025;1259;102742;-82
2023/05/22 01:32:32;;;;;;;9.90;7.20;;;;;;;11.95;70.98;101143.86;105945;1263;100371;-82
2023/05/22 01:35:20;;;;;;;12.40;6.90;;;;;;;11.93;71.05;101144.48;106124;1262;97952;-81
2023/05/22 01:38:07;;;;;;;10.00;6.90;;;;;;;11.91;71.20;101147.25;106321;1264;98053;-83
2023/05/22 01:40:54;;;;;;;8.80;6.70;;;;;;;11.86;71.37;101147.05;106090;1260;98542;-82
2023/05/22 01:43:40;;;;;;;13.00;7.50;;;;;;;11.83;71.26;101142.66;106107;1261;101445;-81
2023/05/22 01:46:27;;;;;;;11.10;7.40;;;;;;;11.80;71.33;101144.55;106102;1260;99065;-82
2023/05/22 01:49:13;;;;;;;9.40;6.80;;;;;;;11.76;71.50;101141.31;106156;1265;98977;-82
2023/05/22 01:52:11;;;;;;;10.40;6.50;;;;;;;11.71;71.98;101141.20;106005;1259;98454;-82
2023/05/22 01:55:04;;;;;;;10.50;7.00;;;;;;;11.68;72.32;101138.73;106150;1260;98375;-82
2023/05/22 01:58:07;;;;;;;9.90;7.20;;;;;;;11.65;72.08;101140.10;105997;1262;101341;-82
2023/05/22 02:00:56;;;;;;;9.90;7.60;;;;;;;11.61;72.45;101143.97;106094;1265;99281;-79
2023/05/22 02:03:45;;;;;;;9.40;6.80;;;;;;;11.57;72.59;101146.73;106054;1262;97869;-82
2023/05/22 02:06:32;;;;;;;10.70;6.70;;;;;;;11.50;72.29;101145.95;106086;1259;97896;-80
2023/05/22 02:09:20;;;;;;;10.50;6.60;;;;;;;11.39;72.16;101146.88;105960;1263;97960;-81
2023/05/22 02:12:07;;;;;;;11.40;6.20;;;;;;;11.35;72.33;101144.77;106041;1260;101330;-81
2023/05/22 02:14:52;;;;;;;10.70;6.40;;;;;;;11.34;72.40;101142.02;106030;1260;99094;-82
2023/05/22 02:17:39;;;;;;;7.90;5.80;;;;;;;11.33;72.47;101141.26;105956;1263;98000;-82
2023/05/22 02:20:26;;;;;;;10.00;6.30;;;;;;;11.28;72.93;101139.83;106050;1263;97902;-82
2023/05/22 02:23:11;;;;;;;8.20;5.70;;;;;;;11.22;73.19;101135.23;105884;1259;98995;-82
2023/05/22 02:25:57;;;;;;;6.40;5.30;;;;;;;11.16;73.28;101132.69;106041;1264;102028;-81
2023/05/22 02:28:42;;;;;;;8.40;6.60;;;;;;;11.11;73.03;101133.98;105885;1259;100410;-82
2023/05/22 02:31:28;;;;;;;8.00;6.90;;;;;;;11.04;72.89;101132.99;105773;1266;97996;-83
2023/05/22 02:34:16;;;;;;;11.00;7.70;;;;;;;10.98;72.92;101129.41;105967;1265;98817;-81
2023/05/22 02:37:04;;;;;;;9.50;6.50;;;;;;;10.96;72.95;101125.73;106073;1262;97877;-81
2023/05/22 02:39:50;;;;;;;12.90;7.40;;;;;;;10.97;73.27;101125.67;105929;1260;101336;-81
2023/05/22 02:42:35;;;;;;;10.20;6.80;;;;;;;10.96;73.71;101117.77;105947;1265;100569;-81
2023/05/22 02:45:21;;;;;;;10.20;7.20;;;;;;;10.94;73.80;101117.71;105994;1281;97871;-82
2023/05/22 02:48:06;;;;;;;9.60;6.50;;;;;;;10.95;74.04;101119.21;106017;1260;97782;-82
2023/05/22 02:50:52;;;;;;;12.70;6.70;;;;;;;10.94;74.05;101117.21;105991;1260;98863;-80
2023/05/22 02:53:39;;;;;;;13.00;7.90;;;;;;;10.94;74.14;101116.14;106152;1262;101342;-81
2023/05/22 02:56:27;;;;;;;12.60;8.80;;;;;;;10.94;74.29;101112.88;105842;1265;99066;-82
2023/05/22 02:59:15;;;;;;;10.20;7.70;;;;;;;10.95;74.36;101107.79;105825;1260;97771;-81
2023/05/22 03:02:00;;;;;;;12.20;8.30;;;;;;;10.97;74.96;101108.52;106033;1259;97979;-81
2023/05/22 03:04:46;;;;;;;12.00;7.70;;;;;;;10.98;75.31;101108.92;105701;1263;98532;-78
2023/05/22 03:07:33;;;;;;;12.80;8.40;;;;;;;10.99;75.36;101106.13;105346;1260;102420;-81
2023/05/22 03:10:19;;;;;;;13.80;9.20;;;;;;;11.01;75.60;101108.60;105849;1259;108779;-79
2023/05/22 03:13:04;;;;;;;12.20;8.30;;;;;;;11.02;75.94;101106.67;105886;1264;98082;-81
2023/05/22 03:15:50;;;;;;;9.80;8.40;;;;;;;11.03;76.04;101109.38;105888;1263;97980;-79
2023/05/22 03:18:36;;;;;;;10.80;8.30;;;;;;;11.03;75.83;101106.58;106041;1259;99679;-79
2023/05/22 03:21:21;;;;;;;13.40;8.40;;;;;;;11.04;75.98;101106.98;105422;1260;101387;-81
2023/05/22 03:24:07;;;;;;;13.50;8.30;;;;;;;11.05;76.21;101103.97;105766;1262;99092;-79
2023/05/22 03:26:53;;;;;;;11.70;8.20;;;;;;;11.07;76.10;101105.70;105961;1263;98057;-80
2023/05/22 03:29:46;;;;;;;9.70;7.90;;;;;;;11.09;76.22;101109.73;106378;1260;97899;-80
2023/05/22 03:32:35;;;;;;;8.90;7.40;;;;;;;11.08;76.06;101107.70;106045;1263;98504;-79
2023/05/22 03:35:23;;;;;;;8.70;7.40;;;;;;;11.05;76.04;101110.98;106037;1260;101324;-80
2023/05/22 03:38:09;;;;;;;10.20;8.10;;;;;;;11.03;76.16;101116.39;105909;1267;99827;-80
2023/05/22 03:40:54;;;;;;;9.30;7.60;;;;;;;11.01;76.46;101118.50;105975;1260;97892;-81
2023/05/22 03:43:40;;;;;;;11.90;7.30;;;;;;;11.01;76.63;101115.86;105963;1263;97970;-81
2023/05/22 03:46:26;;;;;;;10.80;7.90;;;;;;;11.01;76.58;101112.41;105877;1261;98895;-80
2023/05/22 03:49:11;;;;;;;9.40;7.70;;;;;;;11.02;77.09;101113.28;106247;1265;101372;-82
2023/05/22 03:51:56;;;;;;;9.40;7.20;;;;;;;11.04;77.37;101114.50;105829;1262;99320;-82
2023/05/22 03:54:42;;;;;;;11.10;7.70;;;;;;;11.06;77.94;101114.39;105976;1261;99045;-82
2023/05/22 03:57:27;;;;;;;15.80;8.90;;;;;;;11.12;78.26;101114.25;106042;1262;97835;-83
2023/05/22 04:00:18;;;;;;;10.80;8.40;;;;;;;11.19;78.58;101117.48;106481;1262;97878;-82
2023/05/22 04:03:03;;;;;;;13.60;9.10;;;;;;;11.27;79.04;101118.00;105929;1265;102743;-83
2023/05/22 04:05:50;;;;;;;9.80;8.00;;;;;;;11.35;79.36;101113.48;105908;1262;100521;-82
2023/05/22 04:08:36;;;;;;;13.60;8.60;;;;;;;11.43;79.83;101109.22;105962;1263;99081;-82
2023/05/22 04:11:22;;;;;;;11.90;8.20;;;;;;;11.54;80.10;101109.20;105995;1262;98021;-82
2023/05/22 04:14:08;;;;;;;10.70;8.40;;;;;;;11.66;80.22;101106.94;106078;1265;98505;-81
2023/05/22 04:16:53;;;;;;;10.60;8.60;;;;;;;11.77;80.60;101109.98;106071;1261;101453;-82
2023/05/22 04:19:39;;;;;;;10.40;8.00;;;;;;;11.87;80.65;101113.54;105929;1261;99219;-81
2023/05/22 04:22:29;;;;;;;13.50;8.30;;;;;;;11.97;80.67;101109.80;105895;1265;99077;-84
2023/05/22 04:25:15;;;;;;;;;;;;;;;12.09;80.82;101104.17;105986;1265;98003;-81
2023/05/22 04:28:04;;;;;;;10.50;8.00;;;;;;;12.18;80.97;101103.64;105872;1263;98025;-79
2023/05/22 04:30:49;;;;;;;12.80;8.20;;;;;;;12.30;80.96;101103.58;105476;1266;101346;-81
2023/05/22 04:33:37;;;;;;;10.70;8.40;;;;;;;12.42;80.88;101101.58;106117;1265;100150;-81
2023/05/22 04:36:24;;;;;;;11.50;8.00;;;;;;;12.54;80.86;101102.61;105989;1265;97950;-83
2023/05/22 04:39:10;;;;;;;11.90;7.90;;;;;;;12.66;80.82;101103.50;106042;1266;97989;-82
2023/05/22 04:41:57;;;;;;;13.10;8.50;;;;;;;12.77;80.32;101099.80;106194;1265;98444;-82
2023/05/22 04:44:42;;;;;;;12.50;8.80;;;;;;;12.86;80.22;101101.27;106235;1261;102700;-80
2023/05/22 04:47:32;;;;;;;12.60;7.90;;;;;;;12.96;80.52;101102.39;105969;1261;99170;-83
2023/05/22 04:50:23;;;;;;;11.30;8.50;;;;;;;13.07;80.37;101101.23;106024;1263;98621;-82
2023/05/22 04:53:11;;;;;;;10.50;8.00;;;;;;;13.17;80.33;101099.57;106037;1270;96528;-81
2023/05/22 04:55:57;;;;;;;12.60;7.80;;;;;;;13.28;80.21;101101.80;106182;1265;97858;-82
2023/05/22 04:58:42;;;;;;;13.50;8.00;;;;;;;13.38;79.86;101103.95;105965;1265;101350;-82
2023/05/22 05:01:27;;;;;;;10.30;8.00;;;;;;;13.45;79.72;101101.12;106011;1265;99261;-82
2023/05/22 05:04:13;;;;;;;13.20;8.10;;;;;;;13.51;79.45;101099.77;106024;1258;97944;-82
2023/05/22 05:06:59;;;;;;;11.30;7.10;;;;;;;13.57;79.52;101104.89;106090;1264;98046;-82
2023/05/22 05:09:44;;;;;;;11.20;7.40;;;;;;;13.62;79.81;101104.23;106094;1265;98450;-82
2023/05/22 05:12:30;;;;;;;12.20;7.40;;;;;;;13.65;79.76;101104.02;106020;1266;101358;-83
2023/05/22 05:15:26;;;;;;;12.20;7.70;;;;;;;13.69;79.89;101099.81;105875;1264;101809;-83
2023/05/22 05:18:11;;;;;;;10.00;7.10;;;;;;;13.72;79.80;101105.25;105894;1260;98568;-80
2023/05/22 05:20:57;;;;;;;11.80;7.70;;;;;;;13.76;80.00;101107.70;105975;1260;99367;-80
2023/05/22 05:23:42;;;;;;;10.30;7.20;;;;;;;13.81;80.05;101110.19;106001;1264;97900;-80
2023/05/22 05:26:28;;;;;;;10.10;6.80;;;;;;;13.90;80.13;101109.95;105915;1265;101332;-80
2023/05/22 05:29:14;;;;;;;13.90;7.90;;;;;;;14.00;79.70;101110.83;106038;1265;99075;-82
2023/05/22 05:32:08;;;;;;;8.60;7.00;;;;;;;14.11;79.31;101112.64;105912;1264;97961;-82
2023/05/22 05:35:12;;;;;;;10.40;7.20;;;;;;;14.23;78.92;101109.23;105954;1266;98137;-82
2023/05/22 05:38:03;;;;;;;8.50;6.80;;;;;;;14.36;78.56;101109.16;105881;1267;97988;-83
2023/05/22 05:40:50;;;;;;;10.00;6.80;;;;;;;14.50;78.35;101110.20;106005;1268;101323;-80
2023/05/22 05:43:36;;;;;;;7.60;6.10;;;;;;;14.64;78.28;101108.33;105944;1260;99811;-80
2023/05/22 05:46:25;;;;;;;7.30;6.30;;;;;;;14.80;78.19;101107.94;106042;1260;97957;-82
2023/05/22 05:49:11;;;;;;;8.40;7.40;;;;;;;14.88;77.16;101106.80;105722;1260;98574;-80
2023/05/22 05:51:59;;;;;;;8.60;6.60;;;;;;;15.00;77.54;101104.88;105852;1261;97946;-82
2023/05/22 05:54:46;;;;;;;8.30;6.40;;;;;;;15.13;77.70;101104.73;105902;1260;102184;-81
2023/05/22 05:57:34;;;;;;;7.20;5.80;;;;;;;15.28;77.75;101106.33;105940;1261;100451;-82
2023/05/22 06:00:21;;;;;;;11.10;6.30;;;;;;;15.41;77.12;101105.40;105947;1266;98149;-84
2023/05/22 06:03:07;;;;;;;9.50;5.90;;;;;;;15.55;76.83;101104.43;105686;1261;97932;-85
2023/05/22 06:06:06;;;;;;;7.90;6.10;;;;;;;15.68;75.51;101101.98;105989;1267;98633;-85
2023/05/22 06:09:11;;;;;;;6.70;5.70;;;;;;;15.80;75.49;101105.77;105851;1261;101369;-82
2023/05/22 06:12:20;;;;;;;7.50;6.40;;;;;;;15.92;74.94;101105.80;105712;1274;100345;-84
2023/05/22 06:15:07;;;;;;;9.30;6.50;;;;;;;16.05;75.06;101108.32;106825;1264;97801;-79
2023/05/22 06:17:53;;;;;;;6.30;5.70;;;;;;;16.15;73.55;101104.05;105961;1261;97887;-81
2023/05/22 06:20:38;;;;;;;8.20;5.70;;;;;;;16.24;72.63;101101.19;105353;1266;119359;-77
2023/05/22 06:23:24;;;;;;;11.60;6.00;;;;;;;16.36;73.09;101096.34;105187;1266;102557;-78
2023/05/22 06:26:11;;;;;;;6.90;4.90;;;;;;;16.48;73.26;101096.10;104882;1266;100585;-77
2023/05/22 06:28:57;;;;;;;8.00;5.50;;;;;;;16.60;72.94;101090.80;104975;1261;99321;-79
2023/05/22 06:31:43;;;;;;;10.70;5.30;;;;;;;16.71;71.85;101091.19;104779;1261;98096;-78
2023/05/22 06:34:29;;;;;;;9.80;5.10;;;;;;;16.79;71.61;101089.95;104918;1266;98412;-77
2023/05/22 06:37:16;;;;;;;8.00;5.40;;;;;;;16.88;71.01;101084.38;104995;1266;103059;-76
2023/05/22 06:40:06;;;;;;;7.50;5.40;;;;;;;16.97;70.55;101080.50;105063;1260;99865;-79
2023/05/22 06:43:08;;;;;;;10.60;5.10;;;;;;;17.07;70.64;101081.07;105028;1261;98971;-78
2023/05/22 06:46:05;;;;;;;7.90;5.00;;;;;;;17.18;70.76;101079.04;104889;1261;98067;-77
2023/05/22 06:48:59;;;;;;;10.20;5.60;;;;;;;17.30;69.76;101081.35;105066;1266;98019;-78
2023/05/22 06:51:50;;;;;;;8.20;4.90;;;;;;;17.39;68.77;101084.23;105381;1261;101401;-77
2023/05/22 06:54:36;;;;;;;7.60;4.80;;;;;;;17.48;68.42;101080.68;104746;1264;99105;-78
2023/05/22 06:57:22;;;;;;;9.80;4.80;;;;;;;17.59;67.97;101081.36;104939;1260;98010;-78
2023/05/22 07:00:11;;;;;;;7.80;4.40;;;;;;;17.72;68.48;101082.36;105000;1261;98140;-78
2023/05/22 07:03:13;;;;;;;6.60;5.00;;;;;;;17.87;67.78;101080.24;105848;1261;98447;-83
2023/05/22 07:06:18;;;;;;;8.80;4.90;;;;;;;18.03;67.76;101074.80;104763;1270;102708;-78
2023/05/22 07:09:05;;;;;;;7.40;5.10;;;;;;;18.16;67.16;101074.79;104812;1261;99105;-78
2023/05/22 07:11:51;;;;;;;13.40;5.30;;;;;;;18.29;66.98;101071.00;104919;1260;97943;-78
2023/05/22 07:14:36;;;;;;;7.50;4.90;;;;;;;18.42;66.73;101071.04;105801;1265;98033;-79
2023/05/22 07:17:21;;;;;;;7.30;4.90;;;;;;;18.54;65.92;101067.66;105775;1261;98415;-79
2023/05/22 07:20:09;;;;;;;5.60;4.50;;;;;;;18.66;65.01;101071.73;105209;1261;101368;-79
2023/05/22 07:22:57;;;;;;;7.40;4.30;;;;;;;18.77;64.99;101074.34;105451;1261;99115;-85
2023/05/22 07:25:43;;;;;;;7.80;4.70;;;;;;;18.87;63.76;101070.48;105887;1260;97999;-80
2023/05/22 07:28:28;;;;;;;7.90;4.10;;;;;;;18.96;62.31;101070.20;105736;1261;97923;-79
2023/05/22 07:31:41;;;;;;;5.40;4.40;;;;;;;19.05;62.63;101067.77;105160;1260;97960;-80
2023/05/22 07:34:30;;;;;;;7.50;4.60;;;;;;;19.18;62.91;101067.25;105392;1267;110859;-78
2023/05/22 07:37:17;;;;;;;12.50;5.10;;;;;;;19.28;62.35;101065.89;105490;1261;99079;-88
2023/05/22 07:40:06;;;;;;;5.20;4.10;;;;;;;19.38;62.02;101064.51;105844;1260;99358;-81
2023/05/22 07:42:52;;;;;;;10.60;4.60;;;;;;;19.49;61.84;101061.30;106127;1261;97901;-83
2023/05/22 07:45:38;;;;;;;8.60;3.90;;;;;;;19.60;61.85;101060.55;106031;1263;97788;-82
2023/05/22 07:48:25;;;;;;;7.40;3.80;;;;;;;19.72;60.13;101063.65;105820;1260;102603;-82
2023/05/22 07:51:12;;;;;;;6.90;3.70;;;;;;;19.81;59.32;101063.88;105862;1261;100345;-83
2023/05/22 07:53:59;;;;;;;4.40;3.70;;;;;;;19.89;59.39;101057.40;105878;1264;99109;-83
2023/05/22 07:56:46;;;;;;;5.10;3.00;;;;;;;19.99;57.83;101056.48;105800;1270;98036;-83
2023/05/22 07:59:35;;;;;;;5.40;2.90;;;;;;;20.11;57.02;101054.61;105960;1265;98509;-82
2023/05/22 08:02:21;;;;;;;5.90;3.00;;;;;;;20.23;55.61;101055.89;105910;1260;101342;-83
2023/05/22 08:05:07;;;;;;;10.80;3.50;;;;;;;20.33;54.94;101057.45;105752;1260;99768;-83
2023/05/22 08:07:53;;;;;;;7.30;2.90;;;;;;;20.44;55.33;101053.97;106211;1260;98974;-89
2023/05/22 08:10:39;;;;;;;8.50;3.10;;;;;;;20.55;54.70;101054.15;105907;1261;97992;-85
2023/05/22 08:13:24;;;;;;;5.10;3.50;;;;;;;20.62;53.70;101055.33;105763;1264;97904;-85
2023/05/22 08:16:10;;;;;;;7.20;2.80;;;;;;;20.70;52.64;101059.95;105757;1260;102527;-85
2023/05/22 08:18:55;;;;;;;7.20;3.00;;;;;;;20.76;52.48;101061.11;105824;1265;99096;-86
2023/05/22 08:21:41;;;;;;;6.80;2.50;;;;;;;20.85;52.14;101054.67;105710;1264;98065;-85
2023/05/22 08:24:27;;;;;;;5.40;2.80;;;;;;;20.92;51.17;101052.35;105730;1262;97955;-85
2023/05/22 08:27:13;;;;;;;5.50;3.30;;;;;;;20.99;50.65;101049.23;105758;1261;97907;-81
2023/05/22 08:29:58;;;;;;;4.20;2.50;;;;;;;21.06;50.81;101045.64;105521;1260;102732;-84
2023/05/22 08:32:44;;;;;;;4.50;2.80;;;;;;;21.16;50.61;101050.02;105752;1263;100362;-84
2023/05/22 08:35:30;;;;;;;3.80;2.40;;;;;;;21.25;49.50;101045.92;105775;1264;98571;-85
2023/05/22 08:38:16;;;;;;;6.10;2.40;;;;;;;21.33;48.87;101043.52;105711;1261;97941;-85
2023/05/22 08:41:03;;;;;;;8.10;2.40;;;;;;;21.41;49.32;101042.50;105709;1260;100005;-85
2023/05/22 08:43:49;;;;;;;4.40;2.60;;;;;;;21.53;48.96;101046.13;105407;1265;101448;-84
2023/05/22 08:46:36;;;;;;;6.80;2.80;;;;;;;21.61;48.85;101043.92;105632;1263;100496;-84
2023/05/22 08:49:23;;;;;;;6.90;2.70;;;;;;;21.67;48.29;101041.13;105997;1261;99065;-84
2023/05/22 08:52:16;;;;;;;2.10;1.80;;;;;;;21.72;47.51;101041.38;105556;1260;99397;-83
2023/05/22 08:55:04;;;;;;;4.20;1.90;;;;;;;21.77;46.77;101037.95;105825;1265;98049;-84
2023/05/22 08:57:50;;;;;;;4.20;2.50;;;;;;;21.81;46.62;101038.10;105750;1260;101352;-84
2023/05/22 09:00:36;;;;;;;5.60;2.40;;;;;;;21.89;46.89;101036.27;105740;1264;100418;-84
2023/05/22 09:03:22;;;;;;;3.40;2.30;;;;;;;22.00;46.54;101033.54;105690;1266;99967;-84
2023/05/22 09:06:08;;;;;;;8.60;2.10;;;;;;;22.12;46.06;101026.39;105650;1262;97997;-85
2023/05/22 09:09:00;;;;;;;5.00;2.30;;;;;;;22.22;45.83;101022.48;105793;1260;97887;-85
2023/05/22 09:11:46;;;;;;;9.30;2.40;;;;;;;22.30;46.48;101018.81;105805;1261;102629;-85
2023/05/22 09:14:42;;;;;;;6.90;2.50;;;;;;;22.41;46.42;101017.11;106084;1265;100757;-78
2023/05/22 09:17:27;;;;;;;4.80;2.30;;;;;;;22.54;45.86;101012.58;104943;1265;99027;-78
2023/05/22 09:20:14;;;;;;;2.90;1.90;;;;;;;22.64;45.62;101006.98;104898;1266;99246;-79
2023/05/22 09:23:01;;;;;;;5.90;2.10;;;;;;;22.77;45.60;101006.09;104973;1261;97972;-79
2023/05/22 09:25:47;;;;;;;9.10;2.20;;;;;;;22.88;44.61;101007.80;104997;1260;101372;-79
2023/05/22 09:28:35;;;;;;;4.60;1.90;;;;;;;22.88;43.07;101004.63;104974;1264;101577;-79
2023/05/22 09:31:20;;;;;;;5.90;1.70;;;;;;;22.84;43.35;101004.57;105009;1261;98488;-79
2023/05/22 09:34:09;;;;;;;2.40;1.60;;;;;;;22.78;42.98;101003.75;104968;1261;98469;-78
2023/05/22 09:37:01;;;;;;;4.00;2.30;;;;;;;22.71;42.21;101006.14;104971;1267;98419;-78
2023/05/22 09:39:50;;;;;;;6.90;2.50;;;;;;;22.66;41.70;101006.63;104878;1267;102025;-79
2023/05/22 09:42:36;;;;;;;3.10;1.80;;;;;;;22.63;41.66;101005.45;104944;1260;100535;-78
2023/05/22 09:45:25;;;;;;;4.40;2.40;;;;;;;22.62;42.42;101007.84;104916;1264;99295;-79
2023/05/22 09:48:11;;;;;;;4.60;1.70;;;;;;;22.60;42.46;101005.64;104986;1260;97976;-79
2023/05/22 09:50:59;;;;;;;3.00;1.50;;;;;;;22.59;42.38;101003.61;104921;1267;98410;-78
2023/05/22 09:53:47;;;;;;;3.10;1.80;;;;;;;22.60;42.78;101005.91;104978;1261;101346;-79
2023/05/22 09:56:34;;;;;;;4.40;2.50;;;;;;;22.57;42.55;101006.13;105190;1260;100340;-79
2023/05/22 09:59:25;;;;;;;6.00;2.70;;;;;;;22.54;42.11;101000.34;104908;1266;97957;-79
2023/05/22 10:02:12;;;;;;;5.50;2.50;;;;;;;22.51;42.46;100998.45;104932;1260;97976;-79
2023/05/22 10:04:59;;;;;;;5.50;2.10;;;;;;;22.49;41.28;100996.40;104909;1261;99152;-78
2023/05/22 10:07:50;;;;;;;6.80;2.70;;;;;;;22.47;41.23;100995.93;104961;1264;110725;-78
2023/05/22 10:10:37;;;;;;;4.90;3.10;;;;;;;22.43;41.41;100997.97;104916;1261;99114;-77
2023/05/22 10:13:25;;;;;;;6.40;2.10;;;;;;;22.38;41.19;100997.37;105477;1260;97976;-77
2023/05/22 10:16:12;;;;;;;3.60;2.30;;;;;;;22.34;40.69;101000.04;106242;1259;97963;-78
2023/05/22 10:18:59;;;;;;;2.60;2.10;;;;;;;22.31;41.10;100998.11;105002;1263;98499;-78
2023/05/22 10:21:46;;;;;;;2.40;1.80;;;;;;;22.31;41.44;100992.73;104938;1265;102549;-78
2023/05/22 10:24:31;;;;;;;4.30;2.00;;;;;;;22.33;40.50;100992.44;105045;1263;99768;-79
2023/05/22 10:27:17;;;;;;;5.50;2.00;;;;;;;22.34;40.85;100985.80;104969;1260;98543;-78
2023/05/22 10:30:19;;;;;;;2.40;2.20;;;;;;;22.44;41.63;100983.80;104967;1264;97991;-79
2023/05/22 10:33:23;;;;;;;3.60;2.40;;;;;;;22.58;41.62;100977.70;104927;1260;98458;-79
2023/05/22 10:36:32;;;;;;;4.40;2.40;;;;;;;22.76;42.19;100974.95;105083;1261;103826;-78
2023/05/22 10:39:42;;;;;;;6.00;2.80;;;;;;;22.88;41.00;100973.10;105106;1259;100367;-79
2023/05/22 10:42:29;;;;;;;2.60;2.00;;;;;;;22.85;40.39;100972.69;105141;1263;98940;-77
2023/05/22 10:45:15;;;;;;;4.80;2.50;;;;;;;22.74;39.81;100966.30;104951;1264;98556;-78
2023/05/22 10:48:11;;;;;;;5.80;2.50;;;;;;;22.69;39.95;100967.94;105115;1260;98427;-79
2023/05/22 10:50:58;;;;;;;2.60;2.30;;;;;;;22.58;40.78;100969.17;105026;1260;101349;-78
2023/05/22 10:53:44;;;;;;;4.70;2.40;;;;;;;22.48;40.79;100964.67;105112;1263;99244;-78
2023/05/22 10:56:34;;;;;;;3.40;2.90;;;;;;;22.47;41.70;100966.19;105008;1263;98696;-78
2023/05/22 10:59:32;;;;;;;5.20;2.50;;;;;;;22.59;41.90;100962.52;104959;1260;97992;-79
2023/05/22 11:02:27;;;;;;;5.60;2.50;;;;;;;22.80;42.19;100959.81;105801;1263;97876;-78
2023/05/22 11:05:24;;;;;;;3.50;2.60;;;;;;;22.99;41.55;100957.09;105343;1260;101456;-77
2023/05/22 11:08:25;;;;;;;5.30;2.30;;;;;;;23.13;40.25;100947.87;105064;1259;99149;-78
2023/05/22 11:11:11;;;;;;;4.90;2.60;;;;;;;23.23;40.91;100947.00;105063;1263;99413;-78
2023/05/22 11:14:04;;;;;;;5.90;2.40;;;;;;;23.35;41.23;100945.98;104976;1260;97935;-79
2023/05/22 11:16:59;;;;;;;7.80;2.60;;;;;;;23.43;40.38;100945.05;105034;1260;99883;-78
2023/05/22 11:19:58;;;;;;;3.10;2.50;;;;;;;23.45;39.41;100941.35;105115;1263;101359;-78
2023/05/22 11:22:54;;;;;;;8.10;2.60;;;;;;;23.45;39.67;100931.63;105332;1259;99093;-79
2023/05/22 11:25:40;;;;;;;5.50;2.90;;;;;;;23.51;40.43;100929.65;104999;1259;98373;-79
2023/05/22 11:28:26;;;;;;;3.00;2.20;;;;;;;23.58;40.79;100932.14;104924;1263;99243;-79
2023/05/22 11:31:11;;;;;;;6.10;3.10;;;;;;;23.62;40.16;100929.33;105068;1264;98585;-78
2023/05/22 11:33:57;;;;;;;3.60;2.60;;;;;;;23.64;40.08;100929.06;104995;1263;102633;-78
2023/05/22 11:36:43;;;;;;;13.70;3.30;;;;;;;23.64;40.02;100932.17;105005;1261;99061;-79
2023/05/22 11:39:31;;;;;;;4.40;2.60;;;;;;;23.63;39.75;100930.43;105027;1260;97887;-77
2023/05/22 11:42:18;;;;;;;4.30;2.60;;;;;;;23.65;39.56;100929.58;105015;1260;97942;-78
2023/05/22 11:45:04;;;;;;;5.00;2.40;;;;;;;23.74;39.80;100928.91;105038;1263;98498;-77
2023/05/22 11:47:50;;;;;;;4.10;2.30;;;;;;;23.89;40.26;100927.40;104983;1263;102586;-78
2023/05/22 11:50:36;;;;;;;8.10;2.30;;;;;;;24.07;40.08;100922.90;105059;1264;100550;-77
2023/05/22 11:53:22;;;;;;;5.10;2.40;;;;;;;24.24;39.70;100917.06;105005;1263;99000;-77
2023/05/22 11:56:08;;;;;;;5.00;2.70;;;;;;;24.39;40.03;100910.75;104968;1263;98422;-77
2023/05/22 11:58:53;;;;;;;6.90;2.40;;;;;;;24.49;40.28;100908.59;104989;1263;98486;-77
2023/05/22 12:01:39;;;;;;;5.00;3.00;;;;;;;24.54;40.20;100908.92;104975;1259;102490;-78
2023/05/22 12:04:25;;;;;;;6.10;2.70;;;;;;;24.54;39.70;100906.52;105051;1264;99078;-79
2023/05/22 12:07:11;;;;;;;8.60;2.80;;;;;;;24.57;39.57;100903.34;104941;1260;97986;-79
2023/05/22 12:09:57;;;;;;;10.50;3.00;;;;;;;24.54;38.38;100900.10;104999;1259;97958;-79
2023/05/22 12:12:42;;;;;;;6.20;3.30;;;;;;;24.48;37.95;100894.95;105058;1263;98452;-79
2023/05/22 12:15:28;;;;;;;6.20;2.30;;;;;;;24.45;38.57;100895.98;105118;1261;102550;-78
2023/05/22 12:18:13;;;;;;;5.90;2.60;;;;;;;24.51;39.25;100895.17;105199;1263;99208;-78
2023/05/22 12:20:59;;;;;;;3.80;2.60;;;;;;;24.56;38.70;100896.21;105154;1264;98929;-79
2023/05/22 12:23:49;;;;;;;3.90;2.30;;;;;;;24.65;38.32;100894.31;105158;1267;98089;-79
2023/05/22 12:26:36;;;;;;;4.00;2.00;;;;;;;24.72;38.09;100891.03;105252;1259;97872;-79
2023/05/22 12:29:22;;;;;;;3.30;2.40;;;;;;;24.69;37.29;100888.23;105131;1259;102124;-80
2023/05/22 12:32:12;;;;;;;3.70;2.70;;;;;;;24.59;36.89;100886.08;105112;1260;99099;-79
2023/05/22 12:34:58;;;;;;;6.20;2.50;;;;;;;24.62;37.80;100883.52;105038;1264;98833;-78
2023/05/22 12:37:48;;;;;;;10.90;2.70;;;;;;;24.70;37.29;100876.13;104929;1264;97967;-79
2023/05/22 12:40:34;;;;;;;2.90;2.20;;;;;;;24.77;37.24;100877.25;105188;1263;98505;-79
2023/05/22 12:43:22;;;;;;;2.90;2.30;;;;;;;24.84;36.48;100875.45;105027;1265;101563;-78
2023/05/22 12:46:07;;;;;;;2.90;2.00;;;;;;;24.84;36.65;100871.40;104977;1264;99762;-79
2023/05/22 12:48:53;;;;;;;3.20;2.20;;;;;;;24.91;37.00;100870.09;105157;1259;99371;-81